Portada
METAR-TAF:

METAR-TAF

Aeroports :

San José del Cabo, Mèxic

latitud: 23-09N, longitud: 109-42W, altitud: 109 m

Observació

L'informe es va fer fa 5 hores i 20 minuts, a les 02:46 UTC
Vent 5 kt del Est/Nord-Est
Temperatura 29°C
Humitat 66%
Pressió 1012 hPa
Visibilitat: 19.3 km
Núvols disperses a una alçada de 25000 ft

METAR: MMSD 190246Z 07005KT 12SM SCT250 29/22 A2989 RMK SLP105 52013 991 8/004 CU AC

Hora: 02:06 (08:06 UTC)

Pronòstic

L'informe es va fer fa 3 hores i 58 minuts, a les 04:08 UTC
Pronòstic vàlid del 19 a les 06 UTC al 20 a les 06 UTC
Vent 5 kt del Oest/Nord-Oest
Visibilitat: 10 km
Cel clar
A partir de les 19 a les 1900 UTC
Vent 10 kt del Sud/Sud-Est
Visibilitat: 10 km
Núvols disperses a una alçada de 3000 ft
A partir de les 20 a les 0300 UTC
Vent 5 kt del Sud-Est
Visibilitat: 10 km
Núvols disperses a una alçada de 2000 ft
Núvols disperses a una alçada de 25000 ft

TAF: MMSD 190408Z 1906/2006 30005KT P6SM SKC FM191900 16010KT P6SM SCT030 FM200300 13005KT P6SM SCT020 SCT250

Observacions i pronòstics meteorològics de més de 4000 aeroports (METAR i TAF).

Les estacions disponibles són els punts grocs i vermells al mapa.

Posi el ratolí al punt desitjat per veure el nom de l'estació.

Feu clic per veure les observacions i els pronòstics meteorològics.

Per canviar el mapa: feu clic els botons verds amb una creu de color negre per apropar; al botó verd amb un guió per allunyar la imatge; o en les fletxes verdes per a mapes adjacents.


METAR-TAF: